Main page
METAR-TAF:

METAR-TAF

Airports :

Dublin Airport

Dublin, Ireland

latitude: 53-26N, longitude: 006-15W, elevation: 68 m

Current weather observation

The report was made 36 minutes ago, at 20:00 UTC
Wind 8 kt from the East/Southeast
Temperature 15°C
Humidity 59%
Pressure 1031 hPa
Visibility 10 km or more
no clouds below 1500 m and no cumulonimbus

METAR: EIDW 222000Z 12008KT CAVOK 15/07 Q1031 NOSIG

Time: 21:36 (20:36 UTC)

Forecast

The report was made 3 hours and 36 minutes ago, at 17:00 UTC
Forecast valid from 22 at 18 UTC to 23 at 18 UTC
Wind 8 kt from the East/Southeast
Visibility 10 km or more
Few clouds at a height of 3000 ft
Temporary
from 22 at 22 UTC to 23 at 08 UTC
Wind 3 kt from variable directions
Becoming
from 23 at 01 UTC to 23 at 03 UTC
Wind 8 kt from the Southeast

TAF: EIDW 221700Z 2218/2318 11008KT 9999 FEW030 TEMPO 2222/2308 VRB03KT BECMG 2301/2303 14008KT

Weather observations and forecasts of more than 4000 airports (METAR and TAF reports).

The available stations are represented by yellow and red dots on the map.

Hover mouse over dot to see the name of the station.

Then click to see weather observations and forecasts.

To change the map : click on the green buttons with a black cross to zoom in, on the green button with a dash to zoom out, or on the green arrows for adjacent maps.


METAR-TAF: